Time;durP1;ratioP1;P1;durP2;ratioP2;P2;SDS_P1;SDS_P2;PMS_P1;PMS_P2;Temp;Humidity;BMP_temperature;BMP_pressure;BME280_temperature;BME280_humidity;BME280_pressure;Samples;Min_cycle;Max_cycle;Signal;HPM_P1;HPM_P2
2023/01/05 00:05:59;;;;;;;1.33;0.60;;;;;;;;;;4954088;28;20936;-87
2023/01/05 00:08:44;;;;;;;11.20;8.93;;;;;;;;;;4974144;28;20119;-87
2023/01/05 00:23:20;;;;;;;0.43;0.43;;;;;;;;;;4960487;28;20047;-87
2023/01/05 00:25:53;;;;;;;94.38;81.93;;;;;;;;;;4991603;28;20125;-86
2023/01/05 00:28:22;;;;;;;125.85;113.53;;;;;;;;;;4987838;28;20113;-87
2023/01/05 00:30:55;;;;;;;7.72;7.15;;;;;;;;;;4969572;28;20101;-87
2023/01/05 00:33:30;;;;;;;0.45;0.45;;;;;;;;;;4967534;28;20098;-86
2023/01/05 00:36:08;;;;;;;5.38;5.07;;;;;;;;;;4990485;28;20042;-86
2023/01/05 00:38:36;;;;;;;0.40;0.40;;;;;;;;;;4989370;28;20050;-87
2023/01/05 00:41:08;;;;;;;1.88;1.83;;;;;;;;;;4961660;28;20034;-85
2023/01/05 00:43:39;;;;;;;46.80;43.05;;;;;;;;;;4973784;28;20141;-87
2023/01/05 00:46:09;;;;;;;1.42;1.40;;;;;;;;;;4985441;28;20141;-86
2023/01/05 00:48:39;;;;;;;0.40;0.40;;;;;;;;;;4962028;28;20046;-87
2023/01/05 00:51:09;;;;;;;0.40;0.40;;;;;;;;;;4964033;28;20074;-87
2023/01/05 00:53:47;;;;;;;0.65;0.65;;;;;;;;;;4966184;28;20508;-86
2023/01/05 00:56:17;;;;;;;0.47;0.47;;;;;;;;;;4982758;28;20061;-86
2023/01/05 00:58:44;;;;;;;0.40;0.40;;;;;;;;;;4966174;28;20035;-85
2023/01/05 01:01:14;;;;;;;27.83;25.75;;;;;;;;;;4980831;28;20049;-85
2023/01/05 01:03:42;;;;;;;1.27;0.70;;;;;;;;;;4954721;28;20042;-86
2023/01/05 01:06:19;;;;;;;4.53;4.28;;;;;;;;;;4974288;28;20042;-86
2023/01/05 01:08:53;;;;;;;5.30;5.05;;;;;;;;;;4981232;28;20061;-86
2023/01/05 01:11:24;;;;;;;0.40;0.40;;;;;;;;;;4971669;28;20102;-86
2023/01/05 01:13:54;;;;;;;0.60;0.60;;;;;;;;;;4972885;28;20041;-86
2023/01/05 01:16:23;;;;;;;0.40;0.40;;;;;;;;;;4976916;28;20354;-85
2023/01/05 01:18:51;;;;;;;1.42;0.57;;;;;;;;;;4975670;28;20169;-86
2023/01/05 01:21:20;;;;;;;0.50;0.50;;;;;;;;;;4975191;28;20050;-86
2023/01/05 01:23:52;;;;;;;0.50;0.50;;;;;;;;;;4984006;28;20571;-86
2023/01/05 01:26:27;;;;;;;0.60;0.60;;;;;;;;;;4984949;28;20047;-88
2023/01/05 01:29:00;;;;;;;4.40;4.07;;;;;;;;;;4984202;28;20050;-88
2023/01/05 01:31:37;;;;;;;1.17;0.50;;;;;;;;;;4981909;28;20118;-87
2023/01/05 01:34:23;;;;;;;0.40;0.40;;;;;;;;;;4990312;28;20066;-87
2023/01/05 01:37:32;;;;;;;0.47;0.47;;;;;;;;;;5003951;28;20049;-89
2023/01/05 01:40:10;;;;;;;0.50;0.50;;;;;;;;;;4987135;28;20046;-87
2023/01/05 01:43:20;;;;;;;0.47;0.47;;;;;;;;;;4991282;28;20582;-85
2023/01/05 01:45:51;;;;;;;0.52;0.52;;;;;;;;;;4987914;28;20046;-88
2023/01/05 01:48:25;;;;;;;1.60;0.50;;;;;;;;;;4989244;28;20145;-87
2023/01/05 01:50:54;;;;;;;0.40;0.40;;;;;;;;;;4972607;28;20050;-86
2023/01/05 01:53:24;;;;;;;0.45;0.45;;;;;;;;;;4973935;28;20066;-86
2023/01/05 01:55:53;;;;;;;0.45;0.45;;;;;;;;;;4972740;28;20038;-86
2023/01/05 01:58:23;;;;;;;1.38;0.57;;;;;;;;;;4971490;28;20054;-88
2023/01/05 02:00:52;;;;;;;1.20;0.47;;;;;;;;;;4967103;28;20051;-86
2023/01/05 02:03:19;;;;;;;0.60;0.60;;;;;;;;;;4986657;28;20105;-85
2023/01/05 02:05:50;;;;;;;0.80;0.52;;;;;;;;;;4972200;28;20381;-85
2023/01/05 02:08:24;;;;;;;0.45;0.45;;;;;;;;;;4970546;28;20247;-85
2023/01/05 02:10:52;;;;;;;;;;;;;;;;;;4981020;28;20558;-85
2023/01/05 02:13:40;;;;;;;0.32;0.32;;;;;;;;;;4996359;28;20362;-84
2023/01/05 02:16:27;;;;;;;0.80;0.43;;;;;;;;;;4973787;28;20665;-85
2023/01/05 02:19:07;;;;;;;0.50;0.50;;;;;;;;;;4963448;28;20039;-85
2023/01/05 02:21:44;;;;;;;48.97;44.63;;;;;;;;;;4977725;28;20070;-88
2023/01/05 02:24:26;;;;;;;0.40;0.40;;;;;;;;;;4968919;28;20047;-86
2023/01/05 02:27:12;;;;;;;1.25;0.50;;;;;;;;;;4993623;28;20038;-85
2023/01/05 02:29:48;;;;;;;1.58;0.50;;;;;;;;;;4971619;28;20493;-87
2023/01/05 02:32:22;;;;;;;0.50;0.50;;;;;;;;;;4970472;28;20134;-85
2023/01/05 02:34:56;;;;;;;0.40;0.40;;;;;;;;;;4979560;28;20493;-86
2023/01/05 02:37:32;;;;;;;0.90;0.50;;;;;;;;;;4980072;28;20046;-86
2023/01/05 02:40:05;;;;;;;0.30;0.30;;;;;;;;;;4964508;28;20450;-84
2023/01/05 02:42:40;;;;;;;0.40;0.40;;;;;;;;;;4972881;28;20395;-86
2023/01/05 02:45:08;;;;;;;0.40;0.40;;;;;;;;;;4974068;28;20042;-86
2023/01/05 02:47:39;;;;;;;62.60;56.38;;;;;;;;;;4970551;28;20039;-87
2023/01/05 02:50:15;;;;;;;52.97;47.65;;;;;;;;;;4963989;28;20065;-86
2023/01/05 02:52:54;;;;;;;1.38;1.38;;;;;;;;;;4978121;28;20042;-86
2023/01/05 02:55:25;;;;;;;0.30;0.30;;;;;;;;;;4971360;28;20054;-87
2023/01/05 02:58:04;;;;;;;0.20;0.20;;;;;;;;;;4974676;28;20335;-87
2023/01/05 03:00:53;;;;;;;0.32;0.32;;;;;;;;;;4975763;28;20077;-83
2023/01/05 03:03:25;;;;;;;1.00;0.30;;;;;;;;;;4989035;28;20052;-85
2023/01/05 03:06:04;;;;;;;0.20;0.20;;;;;;;;;;4969643;28;20348;-85
2023/01/05 03:08:33;;;;;;;0.20;0.20;;;;;;;;;;4992068;28;20055;-86
2023/01/05 03:14:12;;;;;;;0.30;0.30;;;;;;;;;;4973236;28;20479;-85
2023/01/05 03:16:39;;;;;;;3.35;0.30;;;;;;;;;;4988589;28;20050;-86
2023/01/05 03:36:31;;;;;;;0.55;0.20;;;;;;;;;;4986737;28;20050;-85
2023/01/05 03:39:01;;;;;;;0.13;0.13;;;;;;;;;;4985151;28;20141;-85
2023/01/05 03:41:34;;;;;;;0.63;0.20;;;;;;;;;;4983765;28;20052;-85
2023/01/05 03:44:02;;;;;;;0.45;0.10;;;;;;;;;;4968534;28;20046;-85
2023/01/05 03:46:33;;;;;;;0.20;0.20;;;;;;;;;;4969667;28;20050;-85
2023/01/05 03:49:02;;;;;;;0.10;0.10;;;;;;;;;;4969080;28;20081;-85
2023/01/05 03:51:29;;;;;;;13.35;11.95;;;;;;;;;;4988483;28;20620;-86
2023/01/05 03:54:04;;;;;;;0.20;0.20;;;;;;;;;;4970824;28;20046;-85
2023/01/05 03:56:33;;;;;;;3.72;3.50;;;;;;;;;;4969494;28;20046;-86
2023/01/05 03:59:01;;;;;;;0.30;0.30;;;;;;;;;;4969512;28;20532;-86
2023/01/05 04:01:28;;;;;;;0.20;0.20;;;;;;;;;;4966177;28;20307;-86
2023/01/05 04:03:58;;;;;;;0.90;0.52;;;;;;;;;;4966978;28;20097;-85
2023/01/05 04:06:26;;;;;;;4.28;4.07;;;;;;;;;;4976323;28;20047;-85
2023/01/05 04:08:54;;;;;;;0.30;0.30;;;;;;;;;;4967621;28;20141;-85
2023/01/05 04:11:24;;;;;;;0.30;0.30;;;;;;;;;;4982527;23;20033;-81
2023/01/05 04:13:57;;;;;;;0.30;0.30;;;;;;;;;;4988834;28;20120;-82
2023/01/05 04:16:25;;;;;;;0.50;0.50;;;;;;;;;;4990549;28;20068;-81
2023/01/05 04:18:55;;;;;;;0.40;0.40;;;;;;;;;;5016408;28;20088;-81
2023/01/05 04:21:23;;;;;;;5.72;5.38;;;;;;;;;;4993375;28;20107;-81
2023/01/05 04:23:53;;;;;;;2.85;0.40;;;;;;;;;;4978995;28;20054;-81
2023/01/05 04:26:20;;;;;;;0.22;0.22;;;;;;;;;;4994319;28;20061;-82
2023/01/05 04:28:49;;;;;;;0.25;0.25;;;;;;;;;;4997098;28;20057;-81
2023/01/05 04:31:19;;;;;;;0.73;0.30;;;;;;;;;;4991162;28;20052;-80
2023/01/05 04:33:48;;;;;;;0.40;0.40;;;;;;;;;;4992235;28;20092;-83
2023/01/05 04:36:19;;;;;;;0.20;0.20;;;;;;;;;;4999233;28;20042;-82
2023/01/05 04:38:47;;;;;;;0.45;0.22;;;;;;;;;;4982645;28;20045;-82
2023/01/05 04:41:14;;;;;;;111.78;76.63;;;;;;;;;;5003011;28;20047;-82
2023/01/05 04:43:46;;;;;;;;;;;;;;;;;;5021792;28;20045;-82
2023/01/05 04:46:14;;;;;;;37.63;34.22;;;;;;;;;;4997360;28;19925;-82
2023/01/05 04:48:44;;;;;;;0.20;0.20;;;;;;;;;;4997244;28;20562;-82
2023/01/05 04:51:13;;;;;;;0.20;0.20;;;;;;;;;;4998520;28;20515;-82
2023/01/05 04:53:41;;;;;;;1.00;0.73;;;;;;;;;;5000782;28;20336;-82
2023/01/05 04:56:13;;;;;;;0.30;0.30;;;;;;;;;;4996356;28;20050;-82
2023/01/05 04:58:43;;;;;;;25.13;19.10;;;;;;;;;;4993390;28;20571;-82
2023/01/05 05:01:11;;;;;;;43.85;40.30;;;;;;;;;;4991160;28;20060;-82
2023/01/05 05:03:40;;;;;;;0.20;0.20;;;;;;;;;;4995996;28;20488;-82
2023/01/05 05:06:11;;;;;;;0.50;0.50;;;;;;;;;;4991468;28;20050;-81
2023/01/05 05:08:38;;;;;;;61.25;54.55;;;;;;;;;;4994872;28;20160;-82
2023/01/05 05:11:08;;;;;;;0.40;0.40;;;;;;;;;;4997855;28;20076;-81
2023/01/05 05:13:37;;;;;;;0.28;0.28;;;;;;;;;;4996576;28;20042;-81
2023/01/05 05:16:05;;;;;;;0.30;0.30;;;;;;;;;;4994408;28;20722;-81
2023/01/05 05:18:34;;;;;;;0.20;0.20;;;;;;;;;;4998051;28;20077;-82
2023/01/05 05:21:03;;;;;;;0.95;0.38;;;;;;;;;;4996697;28;20054;-82
2023/01/05 05:23:34;;;;;;;2.60;2.50;;;;;;;;;;4996058;28;20053;-81
2023/01/05 05:26:01;;;;;;;0.50;0.50;;;;;;;;;;4995291;28;20046;-82
2023/01/05 05:28:29;;;;;;;0.50;0.50;;;;;;;;;;4998047;28;20046;-82
2023/01/05 05:30:56;;;;;;;61.58;42.65;;;;;;;;;;5014932;28;20049;-83
2023/01/05 05:33:24;;;;;;;0.45;0.45;;;;;;;;;;5013158;28;20054;-81
2023/01/05 05:35:52;;;;;;;0.73;0.50;;;;;;;;;;5021303;28;20038;-81
2023/01/05 05:38:19;;;;;;;0.40;0.40;;;;;;;;;;5025192;28;20081;-82
2023/01/05 05:40:49;;;;;;;1.67;1.67;;;;;;;;;;5016768;28;20046;-82
2023/01/05 05:43:17;;;;;;;0.32;0.32;;;;;;;;;;5014172;28;20086;-82
2023/01/05 05:45:44;;;;;;;0.73;0.40;;;;;;;;;;5014340;28;20053;-82
2023/01/05 05:48:17;;;;;;;3.15;2.80;;;;;;;;;;5017273;28;20058;-82
2023/01/05 05:50:45;;;;;;;0.30;0.30;;;;;;;;;;5016443;28;20046;-82
2023/01/05 05:53:12;;;;;;;0.63;0.25;;;;;;;;;;5002660;28;20050;-82
2023/01/05 05:55:40;;;;;;;307.10;265.92;;;;;;;;;;5017365;28;20045;-82
2023/01/05 05:58:08;;;;;;;0.40;0.40;;;;;;;;;;5014989;28;20049;-81
2023/01/05 06:00:35;;;;;;;1.70;1.58;;;;;;;;;;5011968;28;20432;-82
2023/01/05 06:03:02;;;;;;;65.55;50.33;;;;;;;;;;5018688;28;20116;-83
2023/01/05 06:05:30;;;;;;;0.50;0.50;;;;;;;;;;5016041;28;20050;-81
2023/01/05 06:07:57;;;;;;;3.47;3.25;;;;;;;;;;5015387;28;20049;-82
2023/01/05 06:10:24;;;;;;;0.50;0.50;;;;;;;;;;5017622;28;20472;-82
2023/01/05 06:12:53;;;;;;;16.45;14.90;;;;;;;;;;5010595;28;20096;-83
2023/01/05 06:15:21;;;;;;;0.68;0.50;;;;;;;;;;5014119;28;20045;-82
2023/01/05 06:17:48;;;;;;;0.47;0.47;;;;;;;;;;5015545;28;20038;-82
2023/01/05 06:20:16;;;;;;;10.85;8.13;;;;;;;;;;5015462;28;20073;-82
2023/01/05 06:22:43;;;;;;;1.40;1.35;;;;;;;;;;5002569;28;20038;-83
2023/01/05 06:25:11;;;;;;;2.55;2.38;;;;;;;;;;5019715;28;20058;-84
2023/01/05 06:27:38;;;;;;;35.75;32.03;;;;;;;;;;5018186;28;20046;-82
2023/01/05 06:30:06;;;;;;;99.65;89.75;;;;;;;;;;5014274;28;20046;-82
2023/01/05 06:32:33;;;;;;;52.92;47.38;;;;;;;;;;5017252;28;20056;-83
2023/01/05 06:35:00;;;;;;;29.63;27.20;;;;;;;;;;5016443;28;20041;-84
2023/01/05 06:37:27;;;;;;;0.80;0.70;;;;;;;;;;5017732;28;20038;-80
2023/01/05 06:39:55;;;;;;;0.40;0.40;;;;;;;;;;5020542;28;20058;-83
2023/01/05 06:42:22;;;;;;;0.77;0.50;;;;;;;;;;5019996;28;20041;-83
2023/01/05 06:44:50;;;;;;;0.40;0.40;;;;;;;;;;5016014;28;20045;-82
2023/01/05 06:47:21;;;;;;;53.15;48.47;;;;;;;;;;5015114;28;20064;-85
2023/01/05 06:49:48;;;;;;;0.50;0.50;;;;;;;;;;5011664;28;20169;-82
2023/01/05 06:52:15;;;;;;;0.40;0.40;;;;;;;;;;5014767;28;20077;-83
2023/01/05 06:54:43;;;;;;;0.30;0.30;;;;;;;;;;5010588;28;20038;-81
2023/01/05 06:57:10;;;;;;;0.50;0.50;;;;;;;;;;5012513;28;20546;-81
2023/01/05 06:59:38;;;;;;;0.60;0.60;;;;;;;;;;5016833;28;20042;-81
2023/01/05 07:02:14;;;;;;;0.95;0.57;;;;;;;;;;5016948;28;20033;-82
2023/01/05 07:04:42;;;;;;;0.60;0.60;;;;;;;;;;5015411;28;20137;-82
2023/01/05 07:07:13;;;;;;;0.30;0.30;;;;;;;;;;5015162;28;20046;-82
2023/01/05 07:09:40;;;;;;;3.60;3.42;;;;;;;;;;5013442;28;20053;-82
2023/01/05 07:12:08;;;;;;;1.08;0.60;;;;;;;;;;5014155;28;20072;-82
2023/01/05 07:14:36;;;;;;;0.52;0.52;;;;;;;;;;5006761;28;20195;-82
2023/01/05 07:17:04;;;;;;;136.23;122.53;;;;;;;;;;5012297;28;20045;-82
2023/01/05 07:19:31;;;;;;;0.30;0.30;;;;;;;;;;5016594;28;20048;-81
2023/01/05 07:21:59;;;;;;;0.30;0.30;;;;;;;;;;5019802;28;20053;-81
2023/01/05 07:24:26;;;;;;;0.40;0.40;;;;;;;;;;5018415;28;20115;-81
2023/01/05 07:26:53;;;;;;;0.43;0.43;;;;;;;;;;5011016;28;20061;-82
2023/01/05 07:29:20;;;;;;;0.63;0.63;;;;;;;;;;5011668;28;20423;-82
2023/01/05 07:31:51;;;;;;;0.70;0.70;;;;;;;;;;5008903;28;20298;-82
2023/01/05 07:34:18;;;;;;;0.40;0.40;;;;;;;;;;5008546;28;20116;-81
2023/01/05 07:36:46;;;;;;;0.40;0.40;;;;;;;;;;5008601;28;20107;-81
2023/01/05 07:39:13;;;;;;;0.60;0.60;;;;;;;;;;5010637;28;20594;-82
2023/01/05 07:41:40;;;;;;;0.70;0.50;;;;;;;;;;5003568;28;20041;-79
2023/01/05 07:44:09;;;;;;;0.40;0.40;;;;;;;;;;5009194;28;20050;-82
2023/01/05 07:46:36;;;;;;;0.90;0.50;;;;;;;;;;5007392;28;20060;-81
2023/01/05 07:49:03;;;;;;;0.73;0.50;;;;;;;;;;4999113;28;20081;-84
2023/01/05 07:51:31;;;;;;;9.73;9.20;;;;;;;;;;5005570;28;20400;-82
2023/01/05 07:53:58;;;;;;;0.32;0.32;;;;;;;;;;5009534;28;20479;-82
2023/01/05 07:56:25;;;;;;;0.40;0.40;;;;;;;;;;5001251;28;20451;-82
2023/01/05 07:58:55;;;;;;;0.60;0.60;;;;;;;;;;4990312;28;20048;-82
2023/01/05 08:01:22;;;;;;;10.40;9.65;;;;;;;;;;5005230;28;20054;-82
2023/01/05 08:03:50;;;;;;;32.90;30.02;;;;;;;;;;5005946;28;20054;-82
2023/01/05 08:06:18;;;;;;;1.10;1.10;;;;;;;;;;5003604;28;20045;-82
2023/01/05 08:08:48;;;;;;;5.97;5.47;;;;;;;;;;5004248;28;20151;-83
2023/01/05 08:11:20;;;;;;;1.77;1.75;;;;;;;;;;5012094;28;20057;-81
2023/01/05 08:14:01;;;;;;;0.40;0.40;;;;;;;;;;5006104;28;20053;-81
2023/01/05 08:16:30;;;;;;;0.82;0.50;;;;;;;;;;5004935;28;20112;-80
2023/01/05 08:18:58;;;;;;;0.32;0.32;;;;;;;;;;4999670;28;20045;-81
2023/01/05 08:21:26;;;;;;;88.05;79.68;;;;;;;;;;5006323;28;20116;-80
2023/01/05 08:23:53;;;;;;;1.10;1.10;;;;;;;;;;4984494;28;20108;-82
2023/01/05 08:26:22;;;;;;;0.45;0.45;;;;;;;;;;5003205;28;20522;-82
2023/01/05 08:28:50;;;;;;;0.90;0.90;;;;;;;;;;4993996;28;20369;-82
2023/01/05 08:31:18;;;;;;;0.40;0.40;;;;;;;;;;5018920;28;20093;-84
2023/01/05 08:33:45;;;;;;;0.40;0.40;;;;;;;;;;5022667;28;20101;-81
2023/01/05 08:36:14;;;;;;;69.10;51.97;;;;;;;;;;4994688;28;20058;-82
2023/01/05 08:38:47;;;;;;;0.93;0.60;;;;;;;;;;5019173;28;20042;-82
2023/01/05 08:41:20;;;;;;;0.65;0.63;;;;;;;;;;4992708;28;20054;-83
2023/01/05 08:43:54;;;;;;;42.63;38.53;;;;;;;;;;5001108;28;20053;-83
2023/01/05 08:46:23;;;;;;;0.52;0.43;;;;;;;;;;5009228;28;20105;-81
2023/01/05 08:48:51;;;;;;;1.75;0.68;;;;;;;;;;5008059;28;20463;-84
2023/01/05 08:51:21;;;;;;;0.73;0.47;;;;;;;;;;5005008;28;20483;-82
2023/01/05 08:53:48;;;;;;;1.13;0.77;;;;;;;;;;5016663;28;20052;-83
2023/01/05 08:56:16;;;;;;;0.70;0.57;;;;;;;;;;5009613;28;20121;-82
2023/01/05 08:58:44;;;;;;;2.67;0.60;;;;;;;;;;5005348;28;20492;-82
2023/01/05 09:01:12;;;;;;;0.43;0.43;;;;;;;;;;5019102;28;20159;-83
2023/01/05 09:03:40;;;;;;;1.48;1.38;;;;;;;;;;5008573;28;20052;-83
2023/01/05 09:06:10;;;;;;;0.80;0.80;;;;;;;;;;4993337;28;20462;-83
2023/01/05 09:08:38;;;;;;;1.00;0.68;;;;;;;;;;5010458;28;20070;-83
2023/01/05 09:11:15;;;;;;;526.60;470.33;;;;;;;;;;5012591;28;20502;-83
2023/01/05 09:13:45;;;;;;;1.08;0.50;;;;;;;;;;5011592;28;20122;-83
2023/01/05 09:16:13;;;;;;;0.85;0.82;;;;;;;;;;5012136;28;20531;-82
2023/01/05 09:18:42;;;;;;;17.50;15.85;;;;;;;;;;5008311;28;20056;-82
2023/01/05 09:21:10;;;;;;;1.58;1.20;;;;;;;;;;5011816;28;20442;-83
2023/01/05 09:23:38;;;;;;;1.20;0.90;;;;;;;;;;5008544;28;20038;-80
2023/01/05 09:26:10;;;;;;;5.32;1.05;;;;;;;;;;5012271;28;20042;-83
2023/01/05 09:28:38;;;;;;;;;;;;;;;;;;5014837;28;20048;-82
2023/01/05 09:31:11;;;;;;;38.72;35.08;;;;;;;;;;5015901;28;19975;-80
2023/01/05 09:33:39;;;;;;;1.85;0.85;;;;;;;;;;5007750;28;20046;-82
2023/01/05 09:36:09;;;;;;;3.35;1.20;;;;;;;;;;5007640;28;20042;-83
2023/01/05 09:38:36;;;;;;;2.65;1.38;;;;;;;;;;5013298;28;20129;-82
2023/01/05 09:41:15;;;;;;;14.80;6.45;;;;;;;;;;5013916;28;20365;-83
2023/01/05 09:43:43;;;;;;;3.90;0.98;;;;;;;;;;5011781;28;20050;-84
2023/01/05 09:46:15;;;;;;;2.10;1.05;;;;;;;;;;5007709;28;20042;-80
2023/01/05 09:48:48;;;;;;;3.50;1.38;;;;;;;;;;5002439;28;20034;-82
2023/01/05 09:51:16;;;;;;;1.95;0.75;;;;;;;;;;5007225;28;20253;-81
2023/01/05 09:53:44;;;;;;;30.80;28.23;;;;;;;;;;5009057;28;20092;-82
2023/01/05 09:56:23;;;;;;;7.25;6.68;;;;;;;;;;5021013;28;20036;-83
2023/01/05 09:59:27;;;;;;;4.38;0.90;;;;;;;;;;5022271;28;20049;-81
2023/01/05 10:01:58;;;;;;;2.17;1.40;;;;;;;;;;4995915;28;20038;-83
2023/01/05 10:04:27;;;;;;;2.08;0.93;;;;;;;;;;5006316;28;20057;-81
2023/01/05 10:07:07;;;;;;;1.58;0.70;;;;;;;;;;5004337;28;20046;-82
2023/01/05 10:09:40;;;;;;;1.05;0.70;;;;;;;;;;5007822;28;20057;-82
2023/01/05 10:14:54;;;;;;;2.88;0.73;;;;;;;;;;5029532;28;20042;-86
2023/01/05 10:17:22;;;;;;;1.85;0.88;;;;;;;;;;5030809;28;20056;-86
2023/01/05 10:20:23;;;;;;;0.98;0.73;;;;;;;;;;5025025;28;20096;-86
2023/01/05 10:23:13;;;;;;;2.47;1.15;;;;;;;;;;5025971;28;20038;-86
2023/01/05 10:26:01;;;;;;;2.97;1.88;;;;;;;;;;5023712;28;20569;-87
2023/01/05 10:28:51;;;;;;;2.45;1.00;;;;;;;;;;5023133;28;20050;-87
2023/01/05 10:31:22;;;;;;;0.70;0.68;;;;;;;;;;5026642;28;20056;-86
2023/01/05 10:33:56;;;;;;;1.85;0.98;;;;;;;;;;5022722;28;20074;-86
2023/01/05 10:36:44;;;;;;;4.68;1.00;;;;;;;;;;5021558;28;20061;-86
2023/01/05 10:39:32;;;;;;;2.42;1.08;;;;;;;;;;5033096;28;20041;-86
2023/01/05 10:42:09;;;;;;;2.70;1.17;;;;;;;;;;5033680;28;20590;-85
2023/01/05 10:44:56;;;;;;;2.78;1.10;;;;;;;;;;5032856;28;20053;-86
2023/01/05 10:47:25;;;;;;;3.50;1.30;;;;;;;;;;5032922;28;20045;-88
2023/01/05 10:49:52;;;;;;;3.33;3.13;;;;;;;;;;5032607;28;20103;-85
2023/01/05 10:52:24;;;;;;;3.03;1.10;;;;;;;;;;5032571;28;20045;-86
2023/01/05 10:54:59;;;;;;;3.72;1.23;;;;;;;;;;5030856;28;20132;-86
2023/01/05 10:57:40;;;;;;;3.20;1.17;;;;;;;;;;5032210;28;20049;-87
2023/01/05 11:00:10;;;;;;;2.33;1.05;;;;;;;;;;5014881;28;20057;-86
2023/01/05 11:02:42;;;;;;;3.13;1.13;;;;;;;;;;5032272;28;20498;-85
2023/01/05 11:05:09;;;;;;;4.30;2.28;;;;;;;;;;5039888;28;20069;-83
2023/01/05 11:07:47;;;;;;;2.13;1.02;;;;;;;;;;5056886;28;20030;-83
2023/01/05 11:10:22;;;;;;;1.95;1.02;;;;;;;;;;5056769;28;20053;-84
2023/01/05 11:12:55;;;;;;;4.35;1.10;;;;;;;;;;5056792;28;20054;-83
2023/01/05 11:15:23;;;;;;;4.03;0.98;;;;;;;;;;5041254;28;20080;-86
2023/01/05 11:17:51;;;;;;;12.50;11.40;;;;;;;;;;5017116;28;20054;-85
2023/01/05 11:20:19;;;;;;;3.08;1.08;;;;;;;;;;5016779;28;20037;-87
2023/01/05 11:22:48;;;;;;;324.65;291.17;;;;;;;;;;5032489;28;20056;-85
2023/01/05 11:25:30;;;;;;;3.80;1.13;;;;;;;;;;5033059;28;20108;-86
2023/01/05 11:28:04;;;;;;;1.23;0.70;;;;;;;;;;5032258;28;20562;-87
2023/01/05 11:30:32;;;;;;;3.72;0.88;;;;;;;;;;5050050;22;20049;-80
2023/01/05 11:33:00;;;;;;;3.58;1.00;;;;;;;;;;5039388;28;20100;-81
2023/01/05 11:35:32;;;;;;;4.32;1.40;;;;;;;;;;5029513;28;20045;-82
2023/01/05 11:38:00;;;;;;;12.23;11.05;;;;;;;;;;5021792;28;20046;-80
2023/01/05 11:40:29;;;;;;;1.95;0.85;;;;;;;;;;5031226;28;20046;-84
2023/01/05 11:42:57;;;;;;;2.15;0.75;;;;;;;;;;5012531;28;20520;-83
2023/01/05 11:45:27;;;;;;;2.47;1.10;;;;;;;;;;5031042;28;20050;-81
2023/01/05 11:47:56;;;;;;;3.28;0.90;;;;;;;;;;5031287;28;20049;-81
2023/01/05 11:50:41;;;;;;;4.70;1.52;;;;;;;;;;5031322;28;20059;-80
2023/01/05 11:53:21;;;;;;;3.25;0.90;;;;;;;;;;5031449;28;20057;-82
2023/01/05 11:55:58;;;;;;;3.08;1.00;;;;;;;;;;5033410;28;20617;-81
2023/01/05 11:58:26;;;;;;;1.80;1.00;;;;;;;;;;5034330;28;20452;-82
2023/01/05 12:00:54;;;;;;;2.03;0.93;;;;;;;;;;5034851;28;20524;-82
2023/01/05 12:03:40;;;;;;;2.97;0.80;;;;;;;;;;5016431;28;20049;-82
2023/01/05 12:06:24;;;;;;;4.97;1.42;;;;;;;;;;5014933;28;20053;-82
2023/01/05 12:08:57;;;;;;;3.03;1.00;;;;;;;;;;5032683;28;20064;-82
2023/01/05 12:11:27;;;;;;;3.80;1.20;;;;;;;;;;5032115;28;20057;-82
2023/01/05 12:13:57;;;;;;;3.92;0.70;;;;;;;;;;5018860;28;20113;-82
2023/01/05 12:16:25;;;;;;;3.85;1.35;;;;;;;;;;5036144;28;20340;-82
2023/01/05 12:18:54;;;;;;;0.82;0.82;;;;;;;;;;5015254;28;20072;-81
2023/01/05 12:21:24;;;;;;;2.72;0.88;;;;;;;;;;5014153;28;20052;-82
2023/01/05 12:24:07;;;;;;;1.13;0.63;;;;;;;;;;5014501;28;20048;-83
2023/01/05 12:26:46;;;;;;;2.28;0.80;;;;;;;;;;5032149;28;20390;-83
2023/01/05 12:29:21;;;;;;;1.60;0.80;;;;;;;;;;5014613;28;20132;-82
2023/01/05 12:32:15;;;;;;;2.97;1.00;;;;;;;;;;5014496;28;20064;-83
2023/01/05 12:35:21;;;;;;;0.90;0.80;;;;;;;;;;5031985;28;20048;-82
2023/01/05 12:37:48;;;;;;;3.70;3.40;;;;;;;;;;5014652;28;20092;-83
2023/01/05 12:40:20;;;;;;;3.88;3.58;;;;;;;;;;5014719;28;20084;-82
2023/01/05 12:42:50;;;;;;;3.03;0.75;;;;;;;;;;5033737;28;20053;-83
2023/01/05 12:45:44;;;;;;;7.80;6.32;;;;;;;;;;5017273;28;20045;-82
2023/01/05 12:48:17;;;;;;;2.88;0.90;;;;;;;;;;5031698;28;20555;-82
2023/01/05 12:50:57;;;;;;;4.03;0.90;;;;;;;;;;5030813;28;20058;-82
2023/01/05 12:53:31;;;;;;;1.50;0.98;;;;;;;;;;5013129;28;20152;-82
2023/01/05 12:56:01;;;;;;;2.00;0.70;;;;;;;;;;5031076;28;20073;-82
2023/01/05 12:58:36;;;;;;;3.50;1.05;;;;;;;;;;5030282;28;20140;-82
2023/01/05 13:01:05;;;;;;;2.03;1.30;;;;;;;;;;5029884;28;20418;-82
2023/01/05 13:03:35;;;;;;;2.88;0.80;;;;;;;;;;5013401;28;20072;-82
2023/01/05 13:06:06;;;;;;;2.08;0.98;;;;;;;;;;5015622;28;20050;-82
2023/01/05 13:08:36;;;;;;;2.13;1.20;;;;;;;;;;5035489;28;20059;-82
2023/01/05 13:11:17;;;;;;;3.72;0.95;;;;;;;;;;5034566;28;20399;-82
2023/01/05 13:13:49;;;;;;;6.38;1.30;;;;;;;;;;5033229;28;20050;-82
2023/01/05 13:16:18;;;;;;;4.13;0.95;;;;;;;;;;5016097;28;20046;-82
2023/01/05 13:18:51;;;;;;;4.15;1.17;;;;;;;;;;5033636;28;20485;-82
2023/01/05 13:21:20;;;;;;;4.05;1.38;;;;;;;;;;5039773;28;20041;-83
2023/01/05 13:23:55;;;;;;;1.98;0.90;;;;;;;;;;5031391;28;20121;-82
2023/01/05 13:26:22;;;;;;;3.03;1.38;;;;;;;;;;5049607;28;20049;-82
2023/01/05 13:28:54;;;;;;;5.22;1.20;;;;;;;;;;5016460;28;20079;-82
2023/01/05 13:31:40;;;;;;;2.45;0.98;;;;;;;;;;5016377;28;20057;-82
2023/01/05 13:34:37;;;;;;;4.05;1.15;;;;;;;;;;5016299;28;20054;-82
2023/01/05 13:37:04;;;;;;;2.60;1.08;;;;;;;;;;5024920;28;20045;-82
2023/01/05 13:39:47;;;;;;;4.60;1.05;;;;;;;;;;5034606;28;20059;-82
2023/01/05 13:42:18;;;;;;;4.60;1.50;;;;;;;;;;5034695;28;20053;-82
2023/01/05 13:44:45;;;;;;;3.25;1.00;;;;;;;;;;5016508;28;20149;-82
2023/01/05 13:47:12;;;;;;;5.78;1.50;;;;;;;;;;5016588;28;20045;-82
2023/01/05 13:50:00;;;;;;;4.22;1.40;;;;;;;;;;5035648;28;20045;-82
2023/01/05 13:52:36;;;;;;;8.75;8.00;;;;;;;;;;5028035;28;20105;-82
2023/01/05 13:55:07;;;;;;;3.95;1.25;;;;;;;;;;5034882;28;20046;-82
2023/01/05 13:57:42;;;;;;;10.23;9.48;;;;;;;;;;5035251;28;20045;-83
2023/01/05 14:00:22;;;;;;;6.75;1.55;;;;;;;;;;5035052;28;20049;-82
2023/01/05 14:02:58;;;;;;;4.57;1.33;;;;;;;;;;5035075;28;20037;-82
2023/01/05 14:05:29;;;;;;;1.90;1.30;;;;;;;;;;5035811;28;20072;-82
2023/01/05 14:07:58;;;;;;;6.68;1.95;;;;;;;;;;5035978;28;20549;-82
2023/01/05 14:10:28;;;;;;;39.38;36.15;;;;;;;;;;5036919;28;20061;-82
2023/01/05 14:12:55;;;;;;;4.47;1.60;;;;;;;;;;5017515;28;20049;-82
2023/01/05 14:15:23;;;;;;;3.72;1.20;;;;;;;;;;5033781;28;20095;-82
2023/01/05 14:17:57;;;;;;;7.63;1.60;;;;;;;;;;5034765;28;20049;-82
2023/01/05 14:20:46;;;;;;;3.33;1.50;;;;;;;;;;5034249;28;20488;-82
2023/01/05 14:23:23;;;;;;;3.75;1.73;;;;;;;;;;5017504;28;20336;-82
2023/01/05 14:25:52;;;;;;;4.60;1.98;;;;;;;;;;5034865;28;20505;-82
2023/01/05 14:28:19;;;;;;;5.00;1.60;;;;;;;;;;5017671;28;20053;-82
2023/01/05 14:30:48;;;;;;;3.17;1.38;;;;;;;;;;5035747;28;20045;-82
2023/01/05 14:33:17;;;;;;;3.15;1.23;;;;;;;;;;5036230;28;20049;-82
2023/01/05 14:35:45;;;;;;;3.65;1.30;;;;;;;;;;5034413;28;20489;-83
2023/01/05 14:38:22;;;;;;;3.00;1.23;;;;;;;;;;5034445;28;20285;-82
2023/01/05 14:40:54;;;;;;;4.18;1.30;;;;;;;;;;5034075;28;20041;-82
2023/01/05 14:43:25;;;;;;;12.73;11.23;;;;;;;;;;5033537;28;20513;-83
2023/01/05 14:46:10;;;;;;;5.32;1.38;;;;;;;;;;5032640;28;20065;-82
2023/01/05 14:48:42;;;;;;;3.53;1.30;;;;;;;;;;5031956;28;20050;-82
2023/01/05 14:51:09;;;;;;;;;;;;;;;;;;5032683;28;20412;-83
2023/01/05 14:53:41;;;;;;;5.72;1.67;;;;;;;;;;5031556;28;20308;-83
2023/01/05 14:56:09;;;;;;;5.22;1.85;;;;;;;;;;5013914;28;20056;-82
2023/01/05 14:58:36;;;;;;;4.10;1.70;;;;;;;;;;5031771;28;20123;-82
2023/01/05 15:01:13;;;;;;;7.05;1.70;;;;;;;;;;5013229;28;20057;-82
2023/01/05 15:03:49;;;;;;;2.38;1.15;;;;;;;;;;5032154;28;20053;-82
2023/01/05 15:06:20;;;;;;;4.80;1.38;;;;;;;;;;5032640;28;20041;-82
2023/01/05 15:09:06;;;;;;;1.95;1.20;;;;;;;;;;5034197;28;20049;-82
2023/01/05 15:11:42;;;;;;;6.25;1.90;;;;;;;;;;5047274;28;20045;-82
2023/01/05 15:14:31;;;;;;;1.98;1.40;;;;;;;;;;5030538;28;20053;-82
2023/01/05 15:17:10;;;;;;;5.90;1.80;;;;;;;;;;5033790;28;20057;-83
2023/01/05 15:19:48;;;;;;;4.03;1.83;;;;;;;;;;5016267;28;20057;-82
2023/01/05 15:22:26;;;;;;;1.77;1.25;;;;;;;;;;5033654;28;20045;-82
2023/01/05 15:25:07;;;;;;;1.75;1.20;;;;;;;;;;5033411;28;20050;-82
2023/01/05 15:27:51;;;;;;;2.38;1.02;;;;;;;;;;5032434;28;20140;-82
2023/01/05 15:30:29;;;;;;;2.42;1.10;;;;;;;;;;5015046;28;20076;-82
2023/01/05 15:33:09;;;;;;;2.67;1.60;;;;;;;;;;5017053;28;20059;-83
2023/01/05 15:35:42;;;;;;;1.60;1.30;;;;;;;;;;5031003;28;20548;-82
2023/01/05 15:38:28;;;;;;;1.65;0.90;;;;;;;;;;5031645;28;20124;-81
2023/01/05 15:41:01;;;;;;;2.10;0.93;;;;;;;;;;5016512;28;20457;-82
2023/01/05 15:43:28;;;;;;;6.07;1.20;;;;;;;;;;5035703;28;20064;-82
2023/01/05 15:45:57;;;;;;;2.35;1.17;;;;;;;;;;5033604;28;20072;-82
2023/01/05 15:48:31;;;;;;;3.15;1.40;;;;;;;;;;5033842;28;20382;-82
2023/01/05 15:51:00;;;;;;;2.28;1.23;;;;;;;;;;5015360;28;20056;-82